<?xml version="1.0" encoding="UTF-8" ?>
<gpx version="1.1" xmlns:xsi="http://www.w3.org/2001/XMLSchema-instance" 
    xmlns="http://www.topografix.com/GPX/1/1" 
    xsi:schemaLocation="http://www.topografix.com/GPX/1/1 http://www.topografix.com/GPX/1/1/gpx.xsd" 
    creator="Openrunner - https://www.openrunner.com" >	<trk>
						<name>11240079-Balade Verte - Circuit des étangs - MEB2</name>
						<trkseg>
					<trkpt lat="46.550650" lon="5.158200">
						<ele>185</ele>
						<time>2020-04-28T14:34:13Z</time>
					</trkpt>
					<trkpt lat="46.550760" lon="5.157920">
						<ele>186</ele>
						<time>2020-04-28T14:34:43Z</time>
					</trkpt>
					<trkpt lat="46.550920" lon="5.157550">
						<ele>188</ele>
						<time>2020-04-28T14:35:23Z</time>
					</trkpt>
					<trkpt lat="46.550960" lon="5.157400">
						<ele>188</ele>
						<time>2020-04-28T14:35:37Z</time>
					</trkpt>
					<trkpt lat="46.550950" lon="5.157300">
						<ele>189</ele>
						<time>2020-04-28T14:35:47Z</time>
					</trkpt>
					<trkpt lat="46.550900" lon="5.157220">
						<ele>189</ele>
						<time>2020-04-28T14:35:57Z</time>
					</trkpt>
					<trkpt lat="46.550720" lon="5.157100">
						<ele>189</ele>
						<time>2020-04-28T14:36:23Z</time>
					</trkpt>
					<trkpt lat="46.550680" lon="5.157060">
						<ele>189</ele>
						<time>2020-04-28T14:36:30Z</time>
					</trkpt>
					<trkpt lat="46.550670" lon="5.157020">
						<ele>189</ele>
						<time>2020-04-28T14:36:33Z</time>
					</trkpt>
					<trkpt lat="46.550700" lon="5.156790">
						<ele>190</ele>
						<time>2020-04-28T14:36:55Z</time>
					</trkpt>
					<trkpt lat="46.550850" lon="5.156240">
						<ele>192</ele>
						<time>2020-04-28T14:37:49Z</time>
					</trkpt>
					<trkpt lat="46.550910" lon="5.156040">
						<ele>192</ele>
						<time>2020-04-28T14:38:09Z</time>
					</trkpt>
					<trkpt lat="46.551040" lon="5.155730">
						<ele>193</ele>
						<time>2020-04-28T14:38:43Z</time>
					</trkpt>
					<trkpt lat="46.551150" lon="5.155400">
						<ele>194</ele>
						<time>2020-04-28T14:39:16Z</time>
					</trkpt>
					<trkpt lat="46.551400" lon="5.154470">
						<ele>197</ele>
						<time>2020-04-28T14:40:48Z</time>
					</trkpt>
					<trkpt lat="46.551410" lon="5.154410">
						<ele>197</ele>
						<time>2020-04-28T14:40:54Z</time>
					</trkpt>
					<trkpt lat="46.551430" lon="5.154340">
						<ele>198</ele>
						<time>2020-04-28T14:41:01Z</time>
					</trkpt>
					<trkpt lat="46.551420" lon="5.154270">
						<ele>198</ele>
						<time>2020-04-28T14:41:07Z</time>
					</trkpt>
					<trkpt lat="46.551250" lon="5.153830">
						<ele>198</ele>
						<time>2020-04-28T14:41:53Z</time>
					</trkpt>
					<trkpt lat="46.551200" lon="5.153720">
						<ele>198</ele>
						<time>2020-04-28T14:42:05Z</time>
					</trkpt>
					<trkpt lat="46.551120" lon="5.153620">
						<ele>197</ele>
						<time>2020-04-28T14:42:20Z</time>
					</trkpt>
					<trkpt lat="46.551050" lon="5.153560">
						<ele>197</ele>
						<time>2020-04-28T14:42:30Z</time>
					</trkpt>
					<trkpt lat="46.550870" lon="5.153470">
						<ele>197</ele>
						<time>2020-04-28T14:42:56Z</time>
					</trkpt>
					<trkpt lat="46.550800" lon="5.153460">
						<ele>197</ele>
						<time>2020-04-28T14:43:05Z</time>
					</trkpt>
					<trkpt lat="46.550520" lon="5.153470">
						<ele>196</ele>
						<time>2020-04-28T14:43:43Z</time>
					</trkpt>
					<trkpt lat="46.550030" lon="5.153380">
						<ele>196</ele>
						<time>2020-04-28T14:44:48Z</time>
					</trkpt>
					<trkpt lat="46.549900" lon="5.153340">
						<ele>196</ele>
						<time>2020-04-28T14:45:06Z</time>
					</trkpt>
					<trkpt lat="46.549760" lon="5.153250">
						<ele>195</ele>
						<time>2020-04-28T14:45:27Z</time>
					</trkpt>
					<trkpt lat="46.549430" lon="5.152960">
						<ele>194</ele>
						<time>2020-04-28T14:46:18Z</time>
					</trkpt>
					<trkpt lat="46.549060" lon="5.152660">
						<ele>194</ele>
						<time>2020-04-28T14:47:15Z</time>
					</trkpt>
					<trkpt lat="46.548850" lon="5.152420">
						<ele>193</ele>
						<time>2020-04-28T14:47:50Z</time>
					</trkpt>
					<trkpt lat="46.548580" lon="5.152160">
						<ele>192</ele>
						<time>2020-04-28T14:48:33Z</time>
					</trkpt>
					<trkpt lat="46.548430" lon="5.151970">
						<ele>192</ele>
						<time>2020-04-28T14:49:00Z</time>
					</trkpt>
					<trkpt lat="46.548340" lon="5.151880">
						<ele>191</ele>
						<time>2020-04-28T14:49:15Z</time>
					</trkpt>
					<trkpt lat="46.548270" lon="5.151880">
						<ele>191</ele>
						<time>2020-04-28T14:49:24Z</time>
					</trkpt>
					<trkpt lat="46.548090" lon="5.151950">
						<ele>190</ele>
						<time>2020-04-28T14:49:49Z</time>
					</trkpt>
					<trkpt lat="46.547890" lon="5.151880">
						<ele>190</ele>
						<time>2020-04-28T14:50:16Z</time>
					</trkpt>
					<trkpt lat="46.547590" lon="5.151660">
						<ele>188</ele>
						<time>2020-04-28T14:51:01Z</time>
					</trkpt>
					<trkpt lat="46.547330" lon="5.151530">
						<ele>187</ele>
						<time>2020-04-28T14:51:38Z</time>
					</trkpt>
					<trkpt lat="46.547030" lon="5.151350">
						<ele>186</ele>
						<time>2020-04-28T14:52:21Z</time>
					</trkpt>
					<trkpt lat="46.547000" lon="5.151250">
						<ele>186</ele>
						<time>2020-04-28T14:52:31Z</time>
					</trkpt>
					<trkpt lat="46.546970" lon="5.150890">
						<ele>185</ele>
						<time>2020-04-28T14:53:04Z</time>
					</trkpt>
					<trkpt lat="46.546980" lon="5.150780">
						<ele>185</ele>
						<time>2020-04-28T14:53:15Z</time>
					</trkpt>
					<trkpt lat="46.547010" lon="5.150670">
						<ele>185</ele>
						<time>2020-04-28T14:53:25Z</time>
					</trkpt>
					<trkpt lat="46.547080" lon="5.150530">
						<ele>185</ele>
						<time>2020-04-28T14:53:41Z</time>
					</trkpt>
					<trkpt lat="46.547150" lon="5.150440">
						<ele>185</ele>
						<time>2020-04-28T14:53:54Z</time>
					</trkpt>
					<trkpt lat="46.547290" lon="5.150340">
						<ele>185</ele>
						<time>2020-04-28T14:54:15Z</time>
					</trkpt>
					<trkpt lat="46.547350" lon="5.150280">
						<ele>184</ele>
						<time>2020-04-28T14:54:24Z</time>
					</trkpt>
					<trkpt lat="46.547400" lon="5.150170">
						<ele>184</ele>
						<time>2020-04-28T14:54:36Z</time>
					</trkpt>
					<trkpt lat="46.547400" lon="5.150080">
						<ele>184</ele>
						<time>2020-04-28T14:54:45Z</time>
					</trkpt>
					<trkpt lat="46.547160" lon="5.149620">
						<ele>183</ele>
						<time>2020-04-28T14:55:38Z</time>
					</trkpt>
					<trkpt lat="46.547100" lon="5.149530">
						<ele>183</ele>
						<time>2020-04-28T14:55:49Z</time>
					</trkpt>
					<trkpt lat="46.547020" lon="5.149480">
						<ele>183</ele>
						<time>2020-04-28T14:56:01Z</time>
					</trkpt>
					<trkpt lat="46.546910" lon="5.149480">
						<ele>183</ele>
						<time>2020-04-28T14:56:15Z</time>
					</trkpt>
					<trkpt lat="46.546780" lon="5.149490">
						<ele>183</ele>
						<time>2020-04-28T14:56:33Z</time>
					</trkpt>
					<trkpt lat="46.546670" lon="5.149580">
						<ele>183</ele>
						<time>2020-04-28T14:56:50Z</time>
					</trkpt>
					<trkpt lat="46.546590" lon="5.149610">
						<ele>183</ele>
						<time>2020-04-28T14:57:01Z</time>
					</trkpt>
					<trkpt lat="46.546530" lon="5.149580">
						<ele>183</ele>
						<time>2020-04-28T14:57:09Z</time>
					</trkpt>
					<trkpt lat="46.546450" lon="5.149530">
						<ele>183</ele>
						<time>2020-04-28T14:57:21Z</time>
					</trkpt>
					<trkpt lat="46.546390" lon="5.149430">
						<ele>183</ele>
						<time>2020-04-28T14:57:33Z</time>
					</trkpt>
					<trkpt lat="46.546180" lon="5.149140">
						<ele>183</ele>
						<time>2020-04-28T14:58:12Z</time>
					</trkpt>
					<trkpt lat="46.546110" lon="5.149040">
						<ele>183</ele>
						<time>2020-04-28T14:58:25Z</time>
					</trkpt>
					<trkpt lat="46.545930" lon="5.148810">
						<ele>184</ele>
						<time>2020-04-28T14:58:57Z</time>
					</trkpt>
					<trkpt lat="46.545820" lon="5.148630">
						<ele>184</ele>
						<time>2020-04-28T14:59:19Z</time>
					</trkpt>
					<trkpt lat="46.545620" lon="5.148460">
						<ele>186</ele>
						<time>2020-04-28T14:59:50Z</time>
					</trkpt>
					<trkpt lat="46.545490" lon="5.148370">
						<ele>187</ele>
						<time>2020-04-28T15:00:09Z</time>
					</trkpt>
					<trkpt lat="46.545380" lon="5.148310">
						<ele>187</ele>
						<time>2020-04-28T15:00:25Z</time>
					</trkpt>
					<trkpt lat="46.545070" lon="5.148120">
						<ele>189</ele>
						<time>2020-04-28T15:01:10Z</time>
					</trkpt>
					<trkpt lat="46.544900" lon="5.147990">
						<ele>190</ele>
						<time>2020-04-28T15:01:35Z</time>
					</trkpt>
					<trkpt lat="46.544660" lon="5.147810">
						<ele>190</ele>
						<time>2020-04-28T15:02:11Z</time>
					</trkpt>
					<trkpt lat="46.544610" lon="5.147760">
						<ele>190</ele>
						<time>2020-04-28T15:02:19Z</time>
					</trkpt>
					<trkpt lat="46.544530" lon="5.147730">
						<ele>190</ele>
						<time>2020-04-28T15:02:30Z</time>
					</trkpt>
					<trkpt lat="46.544380" lon="5.147730">
						<ele>190</ele>
						<time>2020-04-28T15:02:50Z</time>
					</trkpt>
					<trkpt lat="46.544310" lon="5.147780">
						<ele>190</ele>
						<time>2020-04-28T15:03:01Z</time>
					</trkpt>
					<trkpt lat="46.544250" lon="5.147850">
						<ele>190</ele>
						<time>2020-04-28T15:03:11Z</time>
					</trkpt>
					<trkpt lat="46.544190" lon="5.147920">
						<ele>190</ele>
						<time>2020-04-28T15:03:21Z</time>
					</trkpt>
					<trkpt lat="46.544130" lon="5.148030">
						<ele>189</ele>
						<time>2020-04-28T15:03:34Z</time>
					</trkpt>
					<trkpt lat="46.544050" lon="5.148270">
						<ele>189</ele>
						<time>2020-04-28T15:03:59Z</time>
					</trkpt>
					<trkpt lat="46.544010" lon="5.148370">
						<ele>189</ele>
						<time>2020-04-28T15:04:09Z</time>
					</trkpt>
					<trkpt lat="46.543770" lon="5.148820">
						<ele>189</ele>
						<time>2020-04-28T15:05:02Z</time>
					</trkpt>
					<trkpt lat="46.543720" lon="5.148930">
						<ele>189</ele>
						<time>2020-04-28T15:05:14Z</time>
					</trkpt>
					<trkpt lat="46.543660" lon="5.149130">
						<ele>190</ele>
						<time>2020-04-28T15:05:34Z</time>
					</trkpt>
					<trkpt lat="46.543590" lon="5.149300">
						<ele>190</ele>
						<time>2020-04-28T15:05:52Z</time>
					</trkpt>
					<trkpt lat="46.543510" lon="5.149470">
						<ele>190</ele>
						<time>2020-04-28T15:06:11Z</time>
					</trkpt>
					<trkpt lat="46.543380" lon="5.149690">
						<ele>190</ele>
						<time>2020-04-28T15:06:37Z</time>
					</trkpt>
					<trkpt lat="46.543290" lon="5.149810">
						<ele>190</ele>
						<time>2020-04-28T15:06:54Z</time>
					</trkpt>
					<trkpt lat="46.543080" lon="5.150070">
						<ele>189</ele>
						<time>2020-04-28T15:07:30Z</time>
					</trkpt>
					<trkpt lat="46.543000" lon="5.150170">
						<ele>189</ele>
						<time>2020-04-28T15:07:45Z</time>
					</trkpt>
					<trkpt lat="46.542930" lon="5.150390">
						<ele>189</ele>
						<time>2020-04-28T15:08:07Z</time>
					</trkpt>
					<trkpt lat="46.542800" lon="5.151010">
						<ele>190</ele>
						<time>2020-04-28T15:09:06Z</time>
					</trkpt>
					<trkpt lat="46.542690" lon="5.151650">
						<ele>192</ele>
						<time>2020-04-28T15:10:07Z</time>
					</trkpt>
					<trkpt lat="46.542630" lon="5.151860">
						<ele>193</ele>
						<time>2020-04-28T15:10:28Z</time>
					</trkpt>
					<trkpt lat="46.542510" lon="5.152220">
						<ele>194</ele>
						<time>2020-04-28T15:11:04Z</time>
					</trkpt>
					<trkpt lat="46.542480" lon="5.152170">
						<ele>194</ele>
						<time>2020-04-28T15:11:11Z</time>
					</trkpt>
					<trkpt lat="46.542390" lon="5.152470">
						<ele>194</ele>
						<time>2020-04-28T15:11:41Z</time>
					</trkpt>
					<trkpt lat="46.542340" lon="5.152620">
						<ele>193</ele>
						<time>2020-04-28T15:11:56Z</time>
					</trkpt>
					<trkpt lat="46.542230" lon="5.152790">
						<ele>193</ele>
						<time>2020-04-28T15:12:17Z</time>
					</trkpt>
					<trkpt lat="46.542120" lon="5.152890">
						<ele>192</ele>
						<time>2020-04-28T15:12:35Z</time>
					</trkpt>
					<trkpt lat="46.542040" lon="5.152960">
						<ele>192</ele>
						<time>2020-04-28T15:12:47Z</time>
					</trkpt>
					<trkpt lat="46.541950" lon="5.152990">
						<ele>192</ele>
						<time>2020-04-28T15:12:59Z</time>
					</trkpt>
					<trkpt lat="46.541740" lon="5.152980">
						<ele>191</ele>
						<time>2020-04-28T15:13:27Z</time>
					</trkpt>
					<trkpt lat="46.541620" lon="5.153000">
						<ele>191</ele>
						<time>2020-04-28T15:13:44Z</time>
					</trkpt>
					<trkpt lat="46.541520" lon="5.153080">
						<ele>190</ele>
						<time>2020-04-28T15:13:59Z</time>
					</trkpt>
					<trkpt lat="46.541450" lon="5.153180">
						<ele>190</ele>
						<time>2020-04-28T15:14:12Z</time>
					</trkpt>
					<trkpt lat="46.541400" lon="5.153270">
						<ele>189</ele>
						<time>2020-04-28T15:14:22Z</time>
					</trkpt>
					<trkpt lat="46.541360" lon="5.153390">
						<ele>189</ele>
						<time>2020-04-28T15:14:35Z</time>
					</trkpt>
					<trkpt lat="46.541300" lon="5.153550">
						<ele>189</ele>
						<time>2020-04-28T15:14:51Z</time>
					</trkpt>
					<trkpt lat="46.541250" lon="5.153630">
						<ele>189</ele>
						<time>2020-04-28T15:15:01Z</time>
					</trkpt>
					<trkpt lat="46.541180" lon="5.153710">
						<ele>189</ele>
						<time>2020-04-28T15:15:13Z</time>
					</trkpt>
					<trkpt lat="46.541090" lon="5.153960">
						<ele>190</ele>
						<time>2020-04-28T15:15:39Z</time>
					</trkpt>
					<trkpt lat="46.541050" lon="5.154110">
						<ele>190</ele>
						<time>2020-04-28T15:15:54Z</time>
					</trkpt>
					<trkpt lat="46.541040" lon="5.154320">
						<ele>190</ele>
						<time>2020-04-28T15:16:13Z</time>
					</trkpt>
					<trkpt lat="46.541060" lon="5.154470">
						<ele>190</ele>
						<time>2020-04-28T15:16:27Z</time>
					</trkpt>
					<trkpt lat="46.541120" lon="5.154770">
						<ele>191</ele>
						<time>2020-04-28T15:16:56Z</time>
					</trkpt>
					<trkpt lat="46.541190" lon="5.154940">
						<ele>192</ele>
						<time>2020-04-28T15:17:14Z</time>
					</trkpt>
					<trkpt lat="46.541260" lon="5.155090">
						<ele>192</ele>
						<time>2020-04-28T15:17:31Z</time>
					</trkpt>
					<trkpt lat="46.541400" lon="5.155420">
						<ele>192</ele>
						<time>2020-04-28T15:18:06Z</time>
					</trkpt>
					<trkpt lat="46.541530" lon="5.155800">
						<ele>192</ele>
						<time>2020-04-28T15:18:45Z</time>
					</trkpt>
					<trkpt lat="46.541630" lon="5.156210">
						<ele>193</ele>
						<time>2020-04-28T15:19:25Z</time>
					</trkpt>
					<trkpt lat="46.541680" lon="5.156540">
						<ele>193</ele>
						<time>2020-04-28T15:19:56Z</time>
					</trkpt>
					<trkpt lat="46.541690" lon="5.156740">
						<ele>193</ele>
						<time>2020-04-28T15:20:15Z</time>
					</trkpt>
					<trkpt lat="46.541640" lon="5.156780">
						<ele>193</ele>
						<time>2020-04-28T15:20:22Z</time>
					</trkpt>
					<trkpt lat="46.541290" lon="5.156970">
						<ele>193</ele>
						<time>2020-04-28T15:21:12Z</time>
					</trkpt>
					<trkpt lat="46.541240" lon="5.157110">
						<ele>193</ele>
						<time>2020-04-28T15:21:27Z</time>
					</trkpt>
					<trkpt lat="46.541220" lon="5.157350">
						<ele>194</ele>
						<time>2020-04-28T15:21:49Z</time>
					</trkpt>
					<trkpt lat="46.541220" lon="5.157630">
						<ele>195</ele>
						<time>2020-04-28T15:22:15Z</time>
					</trkpt>
					<trkpt lat="46.541240" lon="5.158000">
						<ele>196</ele>
						<time>2020-04-28T15:22:49Z</time>
					</trkpt>
					<trkpt lat="46.541250" lon="5.158310">
						<ele>196</ele>
						<time>2020-04-28T15:23:17Z</time>
					</trkpt>
					<trkpt lat="46.541230" lon="5.158870">
						<ele>197</ele>
						<time>2020-04-28T15:24:09Z</time>
					</trkpt>
					<trkpt lat="46.541170" lon="5.159590">
						<ele>197</ele>
						<time>2020-04-28T15:25:15Z</time>
					</trkpt>
					<trkpt lat="46.541070" lon="5.160100">
						<ele>197</ele>
						<time>2020-04-28T15:26:04Z</time>
					</trkpt>
					<trkpt lat="46.540950" lon="5.160630">
						<ele>196</ele>
						<time>2020-04-28T15:26:55Z</time>
					</trkpt>
					<trkpt lat="46.540850" lon="5.160850">
						<ele>196</ele>
						<time>2020-04-28T15:27:19Z</time>
					</trkpt>
					<trkpt lat="46.540270" lon="5.161440">
						<ele>197</ele>
						<time>2020-04-28T15:28:54Z</time>
					</trkpt>
					<trkpt lat="46.539990" lon="5.161670">
						<ele>197</ele>
						<time>2020-04-28T15:29:37Z</time>
					</trkpt>
					<trkpt lat="46.539700" lon="5.161860">
						<ele>197</ele>
						<time>2020-04-28T15:30:19Z</time>
					</trkpt>
					<trkpt lat="46.539560" lon="5.161900">
						<ele>197</ele>
						<time>2020-04-28T15:30:38Z</time>
					</trkpt>
					<trkpt lat="46.539230" lon="5.161840">
						<ele>197</ele>
						<time>2020-04-28T15:31:22Z</time>
					</trkpt>
					<trkpt lat="46.539110" lon="5.161840">
						<ele>197</ele>
						<time>2020-04-28T15:31:38Z</time>
					</trkpt>
					<trkpt lat="46.538940" lon="5.161860">
						<ele>197</ele>
						<time>2020-04-28T15:32:01Z</time>
					</trkpt>
					<trkpt lat="46.538840" lon="5.161830">
						<ele>197</ele>
						<time>2020-04-28T15:32:15Z</time>
					</trkpt>
					<trkpt lat="46.538750" lon="5.161790">
						<ele>197</ele>
						<time>2020-04-28T15:32:27Z</time>
					</trkpt>
					<trkpt lat="46.538660" lon="5.161720">
						<ele>197</ele>
						<time>2020-04-28T15:32:41Z</time>
					</trkpt>
					<trkpt lat="46.538600" lon="5.161720">
						<ele>197</ele>
						<time>2020-04-28T15:32:49Z</time>
					</trkpt>
					<trkpt lat="46.538370" lon="5.161820">
						<ele>197</ele>
						<time>2020-04-28T15:33:21Z</time>
					</trkpt>
					<trkpt lat="46.538130" lon="5.161900">
						<ele>197</ele>
						<time>2020-04-28T15:33:54Z</time>
					</trkpt>
					<trkpt lat="46.538050" lon="5.161890">
						<ele>197</ele>
						<time>2020-04-28T15:34:05Z</time>
					</trkpt>
					<trkpt lat="46.537550" lon="5.161770">
						<ele>197</ele>
						<time>2020-04-28T15:35:12Z</time>
					</trkpt>
					<trkpt lat="46.537450" lon="5.161770">
						<ele>197</ele>
						<time>2020-04-28T15:35:26Z</time>
					</trkpt>
					<trkpt lat="46.537380" lon="5.161800">
						<ele>197</ele>
						<time>2020-04-28T15:35:35Z</time>
					</trkpt>
					<trkpt lat="46.537320" lon="5.161940">
						<ele>197</ele>
						<time>2020-04-28T15:35:50Z</time>
					</trkpt>
					<trkpt lat="46.537260" lon="5.162100">
						<ele>196</ele>
						<time>2020-04-28T15:36:07Z</time>
					</trkpt>
					<trkpt lat="46.537160" lon="5.162280">
						<ele>196</ele>
						<time>2020-04-28T15:36:28Z</time>
					</trkpt>
					<trkpt lat="46.537130" lon="5.162160">
						<ele>196</ele>
						<time>2020-04-28T15:36:40Z</time>
					</trkpt>
					<trkpt lat="46.537050" lon="5.161810">
						<ele>196</ele>
						<time>2020-04-28T15:37:14Z</time>
					</trkpt>
					<trkpt lat="46.536930" lon="5.161460">
						<ele>195</ele>
						<time>2020-04-28T15:37:50Z</time>
					</trkpt>
					<trkpt lat="46.536520" lon="5.160350">
						<ele>190</ele>
						<time>2020-04-28T15:39:46Z</time>
					</trkpt>
					<trkpt lat="46.535960" lon="5.158810">
						<ele>187</ele>
						<time>2020-04-28T15:42:25Z</time>
					</trkpt>
					<trkpt lat="46.535490" lon="5.157510">
						<ele>189</ele>
						<time>2020-04-28T15:44:40Z</time>
					</trkpt>
					<trkpt lat="46.535190" lon="5.156580">
						<ele>194</ele>
						<time>2020-04-28T15:46:15Z</time>
					</trkpt>
					<trkpt lat="46.534760" lon="5.155000">
						<ele>198</ele>
						<time>2020-04-28T15:48:51Z</time>
					</trkpt>
					<trkpt lat="46.534510" lon="5.154070">
						<ele>200</ele>
						<time>2020-04-28T15:50:22Z</time>
					</trkpt>
					<trkpt lat="46.534390" lon="5.154100">
						<ele>200</ele>
						<time>2020-04-28T15:50:38Z</time>
					</trkpt>
					<trkpt lat="46.534050" lon="5.154150">
						<ele>200</ele>
						<time>2020-04-28T15:51:24Z</time>
					</trkpt>
					<trkpt lat="46.533970" lon="5.154170">
						<ele>200</ele>
						<time>2020-04-28T15:51:35Z</time>
					</trkpt>
					<trkpt lat="46.533820" lon="5.154160">
						<ele>200</ele>
						<time>2020-04-28T15:51:55Z</time>
					</trkpt>
					<trkpt lat="46.533540" lon="5.154090">
						<ele>201</ele>
						<time>2020-04-28T15:52:33Z</time>
					</trkpt>
					<trkpt lat="46.533400" lon="5.154090">
						<ele>201</ele>
						<time>2020-04-28T15:52:52Z</time>
					</trkpt>
					<trkpt lat="46.533250" lon="5.154100">
						<ele>201</ele>
						<time>2020-04-28T15:53:12Z</time>
					</trkpt>
					<trkpt lat="46.533110" lon="5.154140">
						<ele>201</ele>
						<time>2020-04-28T15:53:31Z</time>
					</trkpt>
					<trkpt lat="46.532970" lon="5.154170">
						<ele>200</ele>
						<time>2020-04-28T15:53:50Z</time>
					</trkpt>
					<trkpt lat="46.532940" lon="5.154180">
						<ele>200</ele>
						<time>2020-04-28T15:53:54Z</time>
					</trkpt>
					<trkpt lat="46.532790" lon="5.154190">
						<ele>200</ele>
						<time>2020-04-28T15:54:14Z</time>
					</trkpt>
					<trkpt lat="46.532340" lon="5.154200">
						<ele>199</ele>
						<time>2020-04-28T15:55:14Z</time>
					</trkpt>
					<trkpt lat="46.532160" lon="5.154230">
						<ele>199</ele>
						<time>2020-04-28T15:55:38Z</time>
					</trkpt>
					<trkpt lat="46.531960" lon="5.154280">
						<ele>199</ele>
						<time>2020-04-28T15:56:05Z</time>
					</trkpt>
					<trkpt lat="46.531920" lon="5.154290">
						<ele>199</ele>
						<time>2020-04-28T15:56:10Z</time>
					</trkpt>
					<trkpt lat="46.531800" lon="5.154300">
						<ele>199</ele>
						<time>2020-04-28T15:56:26Z</time>
					</trkpt>
					<trkpt lat="46.531500" lon="5.154290">
						<ele>199</ele>
						<time>2020-04-28T15:57:06Z</time>
					</trkpt>
					<trkpt lat="46.531390" lon="5.154270">
						<ele>200</ele>
						<time>2020-04-28T15:57:21Z</time>
					</trkpt>
					<trkpt lat="46.531430" lon="5.154320">
						<ele>199</ele>
						<time>2020-04-28T15:57:28Z</time>
					</trkpt>
					<trkpt lat="46.531460" lon="5.154420">
						<ele>199</ele>
						<time>2020-04-28T15:57:38Z</time>
					</trkpt>
					<trkpt lat="46.531460" lon="5.154510">
						<ele>199</ele>
						<time>2020-04-28T15:57:47Z</time>
					</trkpt>
					<trkpt lat="46.531260" lon="5.155520">
						<ele>198</ele>
						<time>2020-04-28T15:59:23Z</time>
					</trkpt>
					<trkpt lat="46.531250" lon="5.155660">
						<ele>197</ele>
						<time>2020-04-28T15:59:36Z</time>
					</trkpt>
					<trkpt lat="46.531210" lon="5.155730">
						<ele>197</ele>
						<time>2020-04-28T15:59:44Z</time>
					</trkpt>
					<trkpt lat="46.530990" lon="5.155700">
						<ele>197</ele>
						<time>2020-04-28T16:00:14Z</time>
					</trkpt>
					<trkpt lat="46.530900" lon="5.155700">
						<ele>197</ele>
						<time>2020-04-28T16:00:26Z</time>
					</trkpt>
					<trkpt lat="46.530730" lon="5.155740">
						<ele>197</ele>
						<time>2020-04-28T16:00:49Z</time>
					</trkpt>
					<trkpt lat="46.530620" lon="5.155770">
						<ele>197</ele>
						<time>2020-04-28T16:01:04Z</time>
					</trkpt>
					<trkpt lat="46.530510" lon="5.155830">
						<ele>197</ele>
						<time>2020-04-28T16:01:19Z</time>
					</trkpt>
					<trkpt lat="46.530310" lon="5.156070">
						<ele>196</ele>
						<time>2020-04-28T16:01:54Z</time>
					</trkpt>
					<trkpt lat="46.530040" lon="5.156480">
						<ele>194</ele>
						<time>2020-04-28T16:02:46Z</time>
					</trkpt>
					<trkpt lat="46.529980" lon="5.156550">
						<ele>193</ele>
						<time>2020-04-28T16:02:56Z</time>
					</trkpt>
					<trkpt lat="46.529930" lon="5.156570">
						<ele>193</ele>
						<time>2020-04-28T16:03:03Z</time>
					</trkpt>
					<trkpt lat="46.529820" lon="5.156600">
						<ele>194</ele>
						<time>2020-04-28T16:03:18Z</time>
					</trkpt>
					<trkpt lat="46.529630" lon="5.156550">
						<ele>194</ele>
						<time>2020-04-28T16:03:44Z</time>
					</trkpt>
					<trkpt lat="46.529490" lon="5.156550">
						<ele>194</ele>
						<time>2020-04-28T16:04:03Z</time>
					</trkpt>
					<trkpt lat="46.529390" lon="5.156570">
						<ele>194</ele>
						<time>2020-04-28T16:04:16Z</time>
					</trkpt>
					<trkpt lat="46.529250" lon="5.156620">
						<ele>194</ele>
						<time>2020-04-28T16:04:35Z</time>
					</trkpt>
					<trkpt lat="46.529130" lon="5.156710">
						<ele>194</ele>
						<time>2020-04-28T16:04:53Z</time>
					</trkpt>
					<trkpt lat="46.528900" lon="5.156970">
						<ele>195</ele>
						<time>2020-04-28T16:05:32Z</time>
					</trkpt>
					<trkpt lat="46.528570" lon="5.157390">
						<ele>196</ele>
						<time>2020-04-28T16:06:31Z</time>
					</trkpt>
					<trkpt lat="46.528410" lon="5.157540">
						<ele>196</ele>
						<time>2020-04-28T16:06:56Z</time>
					</trkpt>
					<trkpt lat="46.528370" lon="5.157580">
						<ele>197</ele>
						<time>2020-04-28T16:07:03Z</time>
					</trkpt>
					<trkpt lat="46.528320" lon="5.157600">
						<ele>197</ele>
						<time>2020-04-28T16:07:10Z</time>
					</trkpt>
					<trkpt lat="46.527870" lon="5.157370">
						<ele>199</ele>
						<time>2020-04-28T16:08:13Z</time>
					</trkpt>
					<trkpt lat="46.527500" lon="5.157250">
						<ele>201</ele>
						<time>2020-04-28T16:09:04Z</time>
					</trkpt>
					<trkpt lat="46.527330" lon="5.157220">
						<ele>202</ele>
						<time>2020-04-28T16:09:27Z</time>
					</trkpt>
					<trkpt lat="46.527100" lon="5.157250">
						<ele>203</ele>
						<time>2020-04-28T16:09:58Z</time>
					</trkpt>
					<trkpt lat="46.526940" lon="5.157230">
						<ele>203</ele>
						<time>2020-04-28T16:10:19Z</time>
					</trkpt>
					<trkpt lat="46.526720" lon="5.157140">
						<ele>205</ele>
						<time>2020-04-28T16:10:50Z</time>
					</trkpt>
					<trkpt lat="46.526620" lon="5.157070">
						<ele>205</ele>
						<time>2020-04-28T16:11:04Z</time>
					</trkpt>
					<trkpt lat="46.526450" lon="5.156930">
						<ele>207</ele>
						<time>2020-04-28T16:11:30Z</time>
					</trkpt>
					<trkpt lat="46.526250" lon="5.156840">
						<ele>208</ele>
						<time>2020-04-28T16:11:58Z</time>
					</trkpt>
					<trkpt lat="46.525990" lon="5.156780">
						<ele>209</ele>
						<time>2020-04-28T16:12:33Z</time>
					</trkpt>
					<trkpt lat="46.525930" lon="5.156800">
						<ele>209</ele>
						<time>2020-04-28T16:12:42Z</time>
					</trkpt>
					<trkpt lat="46.525860" lon="5.156890">
						<ele>209</ele>
						<time>2020-04-28T16:12:54Z</time>
					</trkpt>
					<trkpt lat="46.525730" lon="5.157280">
						<ele>206</ele>
						<time>2020-04-28T16:13:34Z</time>
					</trkpt>
					<trkpt lat="46.525610" lon="5.157550">
						<ele>204</ele>
						<time>2020-04-28T16:14:03Z</time>
					</trkpt>
					<trkpt lat="46.525530" lon="5.157620">
						<ele>204</ele>
						<time>2020-04-28T16:14:16Z</time>
					</trkpt>
					<trkpt lat="46.525350" lon="5.157630">
						<ele>204</ele>
						<time>2020-04-28T16:14:40Z</time>
					</trkpt>
					<trkpt lat="46.524820" lon="5.157860">
						<ele>203</ele>
						<time>2020-04-28T16:15:54Z</time>
					</trkpt>
					<trkpt lat="46.524680" lon="5.157870">
						<ele>204</ele>
						<time>2020-04-28T16:16:12Z</time>
					</trkpt>
					<trkpt lat="46.524370" lon="5.157820">
						<ele>204</ele>
						<time>2020-04-28T16:16:54Z</time>
					</trkpt>
					<trkpt lat="46.523620" lon="5.157690">
						<ele>205</ele>
						<time>2020-04-28T16:18:35Z</time>
					</trkpt>
					<trkpt lat="46.523340" lon="5.157640">
						<ele>205</ele>
						<time>2020-04-28T16:19:13Z</time>
					</trkpt>
					<trkpt lat="46.522960" lon="5.157480">
						<ele>207</ele>
						<time>2020-04-28T16:20:05Z</time>
					</trkpt>
					<trkpt lat="46.522930" lon="5.157660">
						<ele>207</ele>
						<time>2020-04-28T16:20:22Z</time>
					</trkpt>
					<trkpt lat="46.522920" lon="5.157840">
						<ele>207</ele>
						<time>2020-04-28T16:20:39Z</time>
					</trkpt>
					<trkpt lat="46.522980" lon="5.158060">
						<ele>207</ele>
						<time>2020-04-28T16:21:01Z</time>
					</trkpt>
					<trkpt lat="46.523160" lon="5.158420">
						<ele>207</ele>
						<time>2020-04-28T16:21:42Z</time>
					</trkpt>
					<trkpt lat="46.523420" lon="5.159020">
						<ele>204</ele>
						<time>2020-04-28T16:22:47Z</time>
					</trkpt>
					<trkpt lat="46.523510" lon="5.159170">
						<ele>204</ele>
						<time>2020-04-28T16:23:05Z</time>
					</trkpt>
					<trkpt lat="46.523700" lon="5.159880">
						<ele>203</ele>
						<time>2020-04-28T16:24:15Z</time>
					</trkpt>
					<trkpt lat="46.523730" lon="5.160020">
						<ele>203</ele>
						<time>2020-04-28T16:24:28Z</time>
					</trkpt>
					<trkpt lat="46.523810" lon="5.160240">
						<ele>203</ele>
						<time>2020-04-28T16:24:51Z</time>
					</trkpt>
					<trkpt lat="46.523910" lon="5.160380">
						<ele>204</ele>
						<time>2020-04-28T16:25:10Z</time>
					</trkpt>
					<trkpt lat="46.524000" lon="5.160490">
						<ele>204</ele>
						<time>2020-04-28T16:25:25Z</time>
					</trkpt>
					<trkpt lat="46.524060" lon="5.160580">
						<ele>204</ele>
						<time>2020-04-28T16:25:37Z</time>
					</trkpt>
					<trkpt lat="46.524080" lon="5.160650">
						<ele>204</ele>
						<time>2020-04-28T16:25:44Z</time>
					</trkpt>
					<trkpt lat="46.524150" lon="5.160640">
						<ele>204</ele>
						<time>2020-04-28T16:25:53Z</time>
					</trkpt>
					<trkpt lat="46.524270" lon="5.160730">
						<ele>203</ele>
						<time>2020-04-28T16:26:11Z</time>
					</trkpt>
					<trkpt lat="46.524410" lon="5.160810">
						<ele>203</ele>
						<time>2020-04-28T16:26:31Z</time>
					</trkpt>
					<trkpt lat="46.524900" lon="5.161160">
						<ele>200</ele>
						<time>2020-04-28T16:27:44Z</time>
					</trkpt>
					<trkpt lat="46.525050" lon="5.161290">
						<ele>199</ele>
						<time>2020-04-28T16:28:08Z</time>
					</trkpt>
					<trkpt lat="46.525170" lon="5.161370">
						<ele>199</ele>
						<time>2020-04-28T16:28:25Z</time>
					</trkpt>
					<trkpt lat="46.525460" lon="5.161480">
						<ele>200</ele>
						<time>2020-04-28T16:29:05Z</time>
					</trkpt>
					<trkpt lat="46.526120" lon="5.161810">
						<ele>202</ele>
						<time>2020-04-28T16:30:38Z</time>
					</trkpt>
					<trkpt lat="46.526440" lon="5.161940">
						<ele>203</ele>
						<time>2020-04-28T16:31:23Z</time>
					</trkpt>
					<trkpt lat="46.526600" lon="5.161990">
						<ele>204</ele>
						<time>2020-04-28T16:31:44Z</time>
					</trkpt>
					<trkpt lat="46.526800" lon="5.162030">
						<ele>204</ele>
						<time>2020-04-28T16:32:11Z</time>
					</trkpt>
					<trkpt lat="46.527010" lon="5.162010">
						<ele>205</ele>
						<time>2020-04-28T16:32:39Z</time>
					</trkpt>
					<trkpt lat="46.527360" lon="5.162040">
						<ele>206</ele>
						<time>2020-04-28T16:33:26Z</time>
					</trkpt>
					<trkpt lat="46.527590" lon="5.162060">
						<ele>207</ele>
						<time>2020-04-28T16:33:57Z</time>
					</trkpt>
					<trkpt lat="46.527810" lon="5.162050">
						<ele>208</ele>
						<time>2020-04-28T16:34:26Z</time>
					</trkpt>
					<trkpt lat="46.528170" lon="5.162000">
						<ele>209</ele>
						<time>2020-04-28T16:35:15Z</time>
					</trkpt>
					<trkpt lat="46.528260" lon="5.162010">
						<ele>210</ele>
						<time>2020-04-28T16:35:27Z</time>
					</trkpt>
					<trkpt lat="46.528350" lon="5.162090">
						<ele>210</ele>
						<time>2020-04-28T16:35:41Z</time>
					</trkpt>
					<trkpt lat="46.528440" lon="5.162230">
						<ele>210</ele>
						<time>2020-04-28T16:35:58Z</time>
					</trkpt>
					<trkpt lat="46.528670" lon="5.162530">
						<ele>209</ele>
						<time>2020-04-28T16:36:40Z</time>
					</trkpt>
					<trkpt lat="46.528760" lon="5.162560">
						<ele>208</ele>
						<time>2020-04-28T16:36:52Z</time>
					</trkpt>
					<trkpt lat="46.528880" lon="5.162570">
						<ele>208</ele>
						<time>2020-04-28T16:37:08Z</time>
					</trkpt>
					<trkpt lat="46.529050" lon="5.162630">
						<ele>207</ele>
						<time>2020-04-28T16:37:31Z</time>
					</trkpt>
					<trkpt lat="46.529280" lon="5.162750">
						<ele>207</ele>
						<time>2020-04-28T16:38:04Z</time>
					</trkpt>
					<trkpt lat="46.529520" lon="5.162840">
						<ele>207</ele>
						<time>2020-04-28T16:38:37Z</time>
					</trkpt>
					<trkpt lat="46.529640" lon="5.162860">
						<ele>207</ele>
						<time>2020-04-28T16:38:53Z</time>
					</trkpt>
					<trkpt lat="46.529910" lon="5.163060">
						<ele>207</ele>
						<time>2020-04-28T16:39:34Z</time>
					</trkpt>
					<trkpt lat="46.530270" lon="5.163210">
						<ele>207</ele>
						<time>2020-04-28T16:40:24Z</time>
					</trkpt>
					<trkpt lat="46.530900" lon="5.163320">
						<ele>207</ele>
						<time>2020-04-28T16:41:48Z</time>
					</trkpt>
					<trkpt lat="46.531100" lon="5.163430">
						<ele>205</ele>
						<time>2020-04-28T16:42:17Z</time>
					</trkpt>
					<trkpt lat="46.531540" lon="5.163810">
						<ele>201</ele>
						<time>2020-04-28T16:43:25Z</time>
					</trkpt>
					<trkpt lat="46.531710" lon="5.164250">
						<ele>203</ele>
						<time>2020-04-28T16:44:11Z</time>
					</trkpt>
					<trkpt lat="46.531950" lon="5.164720">
						<ele>205</ele>
						<time>2020-04-28T16:45:05Z</time>
					</trkpt>
					<trkpt lat="46.532410" lon="5.165150">
						<ele>206</ele>
						<time>2020-04-28T16:46:18Z</time>
					</trkpt>
					<trkpt lat="46.532420" lon="5.165230">
						<ele>206</ele>
						<time>2020-04-28T16:46:26Z</time>
					</trkpt>
					<trkpt lat="46.532200" lon="5.165970">
						<ele>207</ele>
						<time>2020-04-28T16:47:40Z</time>
					</trkpt>
					<trkpt lat="46.532220" lon="5.166040">
						<ele>207</ele>
						<time>2020-04-28T16:47:46Z</time>
					</trkpt>
					<trkpt lat="46.532340" lon="5.166120">
						<ele>207</ele>
						<time>2020-04-28T16:48:04Z</time>
					</trkpt>
					<trkpt lat="46.532500" lon="5.166190">
						<ele>207</ele>
						<time>2020-04-28T16:48:26Z</time>
					</trkpt>
					<trkpt lat="46.532950" lon="5.166340">
						<ele>204</ele>
						<time>2020-04-28T16:49:28Z</time>
					</trkpt>
					<trkpt lat="46.533690" lon="5.166610">
						<ele>202</ele>
						<time>2020-04-28T16:51:10Z</time>
					</trkpt>
					<trkpt lat="46.533930" lon="5.166750">
						<ele>202</ele>
						<time>2020-04-28T16:51:44Z</time>
					</trkpt>
					<trkpt lat="46.534110" lon="5.166900">
						<ele>202</ele>
						<time>2020-04-28T16:52:12Z</time>
					</trkpt>
					<trkpt lat="46.534610" lon="5.167460">
						<ele>202</ele>
						<time>2020-04-28T16:53:36Z</time>
					</trkpt>
					<trkpt lat="46.534770" lon="5.167550">
						<ele>201</ele>
						<time>2020-04-28T16:53:59Z</time>
					</trkpt>
					<trkpt lat="46.534940" lon="5.167620">
						<ele>200</ele>
						<time>2020-04-28T16:54:23Z</time>
					</trkpt>
					<trkpt lat="46.535140" lon="5.167640">
						<ele>199</ele>
						<time>2020-04-28T16:54:49Z</time>
					</trkpt>
					<trkpt lat="46.535250" lon="5.167650">
						<ele>198</ele>
						<time>2020-04-28T16:55:04Z</time>
					</trkpt>
					<trkpt lat="46.535400" lon="5.167700">
						<ele>198</ele>
						<time>2020-04-28T16:55:25Z</time>
					</trkpt>
					<trkpt lat="46.535550" lon="5.167790">
						<ele>197</ele>
						<time>2020-04-28T16:55:46Z</time>
					</trkpt>
					<trkpt lat="46.535800" lon="5.168000">
						<ele>197</ele>
						<time>2020-04-28T16:56:25Z</time>
					</trkpt>
					<trkpt lat="46.536020" lon="5.168050">
						<ele>196</ele>
						<time>2020-04-28T16:56:55Z</time>
					</trkpt>
					<trkpt lat="46.536220" lon="5.168050">
						<ele>195</ele>
						<time>2020-04-28T16:57:21Z</time>
					</trkpt>
					<trkpt lat="46.536410" lon="5.167960">
						<ele>194</ele>
						<time>2020-04-28T16:57:48Z</time>
					</trkpt>
					<trkpt lat="46.536600" lon="5.167840">
						<ele>193</ele>
						<time>2020-04-28T16:58:16Z</time>
					</trkpt>
					<trkpt lat="46.536840" lon="5.167700">
						<ele>193</ele>
						<time>2020-04-28T16:58:50Z</time>
					</trkpt>
					<trkpt lat="46.537020" lon="5.167650">
						<ele>192</ele>
						<time>2020-04-28T16:59:15Z</time>
					</trkpt>
					<trkpt lat="46.537190" lon="5.167630">
						<ele>191</ele>
						<time>2020-04-28T16:59:37Z</time>
					</trkpt>
					<trkpt lat="46.537290" lon="5.167610">
						<ele>190</ele>
						<time>2020-04-28T16:59:51Z</time>
					</trkpt>
					<trkpt lat="46.537480" lon="5.167650">
						<ele>189</ele>
						<time>2020-04-28T17:00:16Z</time>
					</trkpt>
					<trkpt lat="46.537770" lon="5.167730">
						<ele>188</ele>
						<time>2020-04-28T17:00:56Z</time>
					</trkpt>
					<trkpt lat="46.537910" lon="5.167750">
						<ele>188</ele>
						<time>2020-04-28T17:01:15Z</time>
					</trkpt>
					<trkpt lat="46.538630" lon="5.168550">
						<ele>187</ele>
						<time>2020-04-28T17:03:16Z</time>
					</trkpt>
					<trkpt lat="46.538760" lon="5.168650">
						<ele>188</ele>
						<time>2020-04-28T17:03:35Z</time>
					</trkpt>
					<trkpt lat="46.538880" lon="5.168740">
						<ele>188</ele>
						<time>2020-04-28T17:03:53Z</time>
					</trkpt>
					<trkpt lat="46.539030" lon="5.168810">
						<ele>188</ele>
						<time>2020-04-28T17:04:14Z</time>
					</trkpt>
					<trkpt lat="46.539830" lon="5.169010">
						<ele>191</ele>
						<time>2020-04-28T17:06:03Z</time>
					</trkpt>
					<trkpt lat="46.540040" lon="5.169100">
						<ele>192</ele>
						<time>2020-04-28T17:06:32Z</time>
					</trkpt>
					<trkpt lat="46.540150" lon="5.169180">
						<ele>193</ele>
						<time>2020-04-28T17:06:48Z</time>
					</trkpt>
					<trkpt lat="46.540230" lon="5.169250">
						<ele>193</ele>
						<time>2020-04-28T17:07:01Z</time>
					</trkpt>
					<trkpt lat="46.540370" lon="5.169490">
						<ele>194</ele>
						<time>2020-04-28T17:07:30Z</time>
					</trkpt>
					<trkpt lat="46.540520" lon="5.169830">
						<ele>196</ele>
						<time>2020-04-28T17:08:07Z</time>
					</trkpt>
					<trkpt lat="46.540660" lon="5.170110">
						<ele>197</ele>
						<time>2020-04-28T17:08:38Z</time>
					</trkpt>
					<trkpt lat="46.540840" lon="5.170440">
						<ele>197</ele>
						<time>2020-04-28T17:09:17Z</time>
					</trkpt>
					<trkpt lat="46.540960" lon="5.170600">
						<ele>197</ele>
						<time>2020-04-28T17:09:39Z</time>
					</trkpt>
					<trkpt lat="46.541040" lon="5.170660">
						<ele>197</ele>
						<time>2020-04-28T17:09:51Z</time>
					</trkpt>
					<trkpt lat="46.541110" lon="5.170300">
						<ele>197</ele>
						<time>2020-04-28T17:10:25Z</time>
					</trkpt>
					<trkpt lat="46.541160" lon="5.170130">
						<ele>197</ele>
						<time>2020-04-28T17:10:42Z</time>
					</trkpt>
					<trkpt lat="46.541310" lon="5.170120">
						<ele>197</ele>
						<time>2020-04-28T17:11:02Z</time>
					</trkpt>
					<trkpt lat="46.541390" lon="5.170070">
						<ele>197</ele>
						<time>2020-04-28T17:11:14Z</time>
					</trkpt>
					<trkpt lat="46.541480" lon="5.170000">
						<ele>197</ele>
						<time>2020-04-28T17:11:27Z</time>
					</trkpt>
					<trkpt lat="46.541650" lon="5.169800">
						<ele>197</ele>
						<time>2020-04-28T17:11:57Z</time>
					</trkpt>
					<trkpt lat="46.541740" lon="5.169800">
						<ele>197</ele>
						<time>2020-04-28T17:12:09Z</time>
					</trkpt>
					<trkpt lat="46.542030" lon="5.169840">
						<ele>197</ele>
						<time>2020-04-28T17:12:47Z</time>
					</trkpt>
					<trkpt lat="46.542180" lon="5.169840">
						<ele>197</ele>
						<time>2020-04-28T17:13:07Z</time>
					</trkpt>
					<trkpt lat="46.542300" lon="5.169800">
						<ele>197</ele>
						<time>2020-04-28T17:13:24Z</time>
					</trkpt>
					<trkpt lat="46.542440" lon="5.169710">
						<ele>196</ele>
						<time>2020-04-28T17:13:44Z</time>
					</trkpt>
					<trkpt lat="46.542590" lon="5.169630">
						<ele>196</ele>
						<time>2020-04-28T17:14:06Z</time>
					</trkpt>
					<trkpt lat="46.542730" lon="5.169610">
						<ele>196</ele>
						<time>2020-04-28T17:14:24Z</time>
					</trkpt>
					<trkpt lat="46.543070" lon="5.169640">
						<ele>197</ele>
						<time>2020-04-28T17:15:10Z</time>
					</trkpt>
					<trkpt lat="46.543270" lon="5.169690">
						<ele>197</ele>
						<time>2020-04-28T17:15:37Z</time>
					</trkpt>
					<trkpt lat="46.543360" lon="5.169750">
						<ele>197</ele>
						<time>2020-04-28T17:15:50Z</time>
					</trkpt>
					<trkpt lat="46.543410" lon="5.169820">
						<ele>197</ele>
						<time>2020-04-28T17:15:59Z</time>
					</trkpt>
					<trkpt lat="46.543530" lon="5.170130">
						<ele>198</ele>
						<time>2020-04-28T17:16:32Z</time>
					</trkpt>
					<trkpt lat="46.543560" lon="5.170280">
						<ele>197</ele>
						<time>2020-04-28T17:16:46Z</time>
					</trkpt>
					<trkpt lat="46.543560" lon="5.170420">
						<ele>197</ele>
						<time>2020-04-28T17:16:59Z</time>
					</trkpt>
					<trkpt lat="46.543590" lon="5.170550">
						<ele>197</ele>
						<time>2020-04-28T17:17:12Z</time>
					</trkpt>
					<trkpt lat="46.543660" lon="5.170720">
						<ele>197</ele>
						<time>2020-04-28T17:17:30Z</time>
					</trkpt>
					<trkpt lat="46.543790" lon="5.170930">
						<ele>197</ele>
						<time>2020-04-28T17:17:56Z</time>
					</trkpt>
					<trkpt lat="46.543850" lon="5.171000">
						<ele>197</ele>
						<time>2020-04-28T17:18:06Z</time>
					</trkpt>
					<trkpt lat="46.543880" lon="5.171130">
						<ele>197</ele>
						<time>2020-04-28T17:18:19Z</time>
					</trkpt>
					<trkpt lat="46.543930" lon="5.171390">
						<ele>197</ele>
						<time>2020-04-28T17:18:44Z</time>
					</trkpt>
					<trkpt lat="46.544020" lon="5.171340">
						<ele>197</ele>
						<time>2020-04-28T17:18:56Z</time>
					</trkpt>
					<trkpt lat="46.544150" lon="5.171320">
						<ele>197</ele>
						<time>2020-04-28T17:19:14Z</time>
					</trkpt>
					<trkpt lat="46.545120" lon="5.171330">
						<ele>195</ele>
						<time>2020-04-28T17:21:23Z</time>
					</trkpt>
					<trkpt lat="46.545840" lon="5.171330">
						<ele>194</ele>
						<time>2020-04-28T17:22:59Z</time>
					</trkpt>
					<trkpt lat="46.545830" lon="5.170360">
						<ele>196</ele>
						<time>2020-04-28T17:24:28Z</time>
					</trkpt>
					<trkpt lat="46.545830" lon="5.170020">
						<ele>195</ele>
						<time>2020-04-28T17:25:00Z</time>
					</trkpt>
					<trkpt lat="46.545910" lon="5.169500">
						<ele>195</ele>
						<time>2020-04-28T17:25:49Z</time>
					</trkpt>
					<trkpt lat="46.545960" lon="5.169030">
						<ele>194</ele>
						<time>2020-04-28T17:26:32Z</time>
					</trkpt>
					<trkpt lat="46.546020" lon="5.168670">
						<ele>194</ele>
						<time>2020-04-28T17:27:06Z</time>
					</trkpt>
					<trkpt lat="46.546120" lon="5.168560">
						<ele>194</ele>
						<time>2020-04-28T17:27:23Z</time>
					</trkpt>
					<trkpt lat="46.546160" lon="5.168450">
						<ele>194</ele>
						<time>2020-04-28T17:27:34Z</time>
					</trkpt>
					<trkpt lat="46.546210" lon="5.168330">
						<ele>194</ele>
						<time>2020-04-28T17:27:47Z</time>
					</trkpt>
					<trkpt lat="46.546230" lon="5.168110">
						<ele>194</ele>
						<time>2020-04-28T17:28:08Z</time>
					</trkpt>
					<trkpt lat="46.546260" lon="5.167750">
						<ele>193</ele>
						<time>2020-04-28T17:28:41Z</time>
					</trkpt>
					<trkpt lat="46.546390" lon="5.166640">
						<ele>189</ele>
						<time>2020-04-28T17:30:24Z</time>
					</trkpt>
					<trkpt lat="46.546410" lon="5.166450">
						<ele>188</ele>
						<time>2020-04-28T17:30:42Z</time>
					</trkpt>
					<trkpt lat="46.546260" lon="5.166160">
						<ele>188</ele>
						<time>2020-04-28T17:31:15Z</time>
					</trkpt>
					<trkpt lat="46.545930" lon="5.165230">
						<ele>186</ele>
						<time>2020-04-28T17:32:51Z</time>
					</trkpt>
					<trkpt lat="46.545820" lon="5.164720">
						<ele>186</ele>
						<time>2020-04-28T17:33:40Z</time>
					</trkpt>
					<trkpt lat="46.545740" lon="5.164140">
						<ele>185</ele>
						<time>2020-04-28T17:34:35Z</time>
					</trkpt>
					<trkpt lat="46.545530" lon="5.163640">
						<ele>184</ele>
						<time>2020-04-28T17:35:28Z</time>
					</trkpt>
					<trkpt lat="46.545710" lon="5.163550">
						<ele>184</ele>
						<time>2020-04-28T17:35:54Z</time>
					</trkpt>
					<trkpt lat="46.545830" lon="5.163460">
						<ele>183</ele>
						<time>2020-04-28T17:36:12Z</time>
					</trkpt>
					<trkpt lat="46.546030" lon="5.163260">
						<ele>183</ele>
						<time>2020-04-28T17:36:44Z</time>
					</trkpt>
					<trkpt lat="46.546210" lon="5.163160">
						<ele>184</ele>
						<time>2020-04-28T17:37:10Z</time>
					</trkpt>
					<trkpt lat="46.546530" lon="5.163020">
						<ele>184</ele>
						<time>2020-04-28T17:37:54Z</time>
					</trkpt>
					<trkpt lat="46.546810" lon="5.162970">
						<ele>184</ele>
						<time>2020-04-28T17:38:32Z</time>
					</trkpt>
					<trkpt lat="46.547060" lon="5.162930">
						<ele>184</ele>
						<time>2020-04-28T17:39:06Z</time>
					</trkpt>
					<trkpt lat="46.547230" lon="5.162980">
						<ele>184</ele>
						<time>2020-04-28T17:39:29Z</time>
					</trkpt>
					<trkpt lat="46.547430" lon="5.162920">
						<ele>184</ele>
						<time>2020-04-28T17:39:56Z</time>
					</trkpt>
					<trkpt lat="46.547560" lon="5.162850">
						<ele>184</ele>
						<time>2020-04-28T17:40:15Z</time>
					</trkpt>
					<trkpt lat="46.547750" lon="5.162690">
						<ele>184</ele>
						<time>2020-04-28T17:40:44Z</time>
					</trkpt>
					<trkpt lat="46.549080" lon="5.161670">
						<ele>184</ele>
						<time>2020-04-28T17:44:05Z</time>
					</trkpt>
					<trkpt lat="46.549270" lon="5.161480">
						<ele>184</ele>
						<time>2020-04-28T17:44:35Z</time>
					</trkpt>
					<trkpt lat="46.549270" lon="5.161270">
						<ele>184</ele>
						<time>2020-04-28T17:44:55Z</time>
					</trkpt>
					<trkpt lat="46.549290" lon="5.160990">
						<ele>183</ele>
						<time>2020-04-28T17:45:20Z</time>
					</trkpt>
					<trkpt lat="46.549390" lon="5.160650">
						<ele>183</ele>
						<time>2020-04-28T17:45:54Z</time>
					</trkpt>
					<trkpt lat="46.549560" lon="5.160300">
						<ele>183</ele>
						<time>2020-04-28T17:46:34Z</time>
					</trkpt>
					<trkpt lat="46.549830" lon="5.160510">
						<ele>183</ele>
						<time>2020-04-28T17:47:15Z</time>
					</trkpt>
					<trkpt lat="46.550650" lon="5.158200">
						<ele>185</ele>
						<time>2020-04-28T17:51:13Z</time>
					</trkpt>
					</trkseg>
				</trk>
			</gpx>